createdAt,value
2024-04-19T00:03:24.852Z,348.10
2024-04-19T00:05:52.165Z,350.85
2024-04-19T00:08:37.292Z,347.42
2024-04-19T00:11:04.855Z,347.85
2024-04-19T00:13:38.074Z,350.67
2024-04-19T00:16:05.522Z,352.00
2024-04-19T00:18:35.417Z,350.92
2024-04-19T00:21:02.761Z,348.33
2024-04-19T00:23:32.444Z,351.17
2024-04-19T00:26:02.411Z,349.02
2024-04-19T00:28:41.157Z,349.33
2024-04-19T00:31:10.953Z,349.25
2024-04-19T00:33:38.305Z,349.20
2024-04-19T00:36:08.384Z,348.88
2024-04-19T00:38:38.089Z,352.73
2024-04-19T00:41:05.701Z,350.65
2024-04-19T00:43:35.447Z,353.27
2024-04-19T00:46:06.416Z,351.45
2024-04-19T00:48:36.630Z,352.92
2024-04-19T00:51:05.369Z,350.73
2024-04-19T00:53:36.850Z,351.88
2024-04-19T00:56:26.068Z,349.58
2024-04-19T00:58:53.587Z,353.63
2024-04-19T01:01:26.516Z,352.63
2024-04-19T01:03:54.286Z,352.75
2024-04-19T01:06:24.157Z,354.42
2024-04-19T01:08:51.434Z,353.35
2024-04-19T01:11:38.979Z,357.88
2024-04-19T01:14:06.608Z,365.92
2024-04-19T01:16:40.706Z,361.85
2024-04-19T01:19:08.795Z,365.73
2024-04-19T01:21:38.820Z,362.90
2024-04-19T01:24:13.567Z,362.88
2024-04-19T01:26:45.920Z,360.48
2024-04-19T01:29:13.132Z,359.60
2024-04-19T01:31:42.910Z,363.23
2024-04-19T01:34:10.096Z,362.80
2024-04-19T01:36:39.916Z,362.55
2024-04-19T01:39:07.106Z,362.92
2024-04-19T01:41:36.834Z,361.90
2024-04-19T01:44:09.242Z,362.30
2024-04-19T01:46:36.374Z,363.95
2024-04-19T01:49:06.657Z,362.52
2024-04-19T01:51:34.027Z,365.52
2024-04-19T01:54:03.782Z,362.65
2024-04-19T01:56:31.011Z,361.63
2024-04-19T01:59:00.739Z,364.98
2024-04-19T02:01:30.540Z,362.73
2024-04-19T02:04:00.376Z,362.58
2024-04-19T02:06:27.563Z,363.02
2024-04-19T02:08:57.277Z,364.30
2024-04-19T02:11:24.486Z,362.17
2024-04-19T02:13:54.274Z,361.83
2024-04-19T02:16:21.443Z,361.75
2024-04-19T02:18:53.915Z,362.23
2024-04-19T02:21:21.123Z,362.02
2024-04-19T02:23:50.979Z,364.02
2024-04-19T02:26:18.078Z,363.67
2024-04-19T02:29:03.886Z,365.17
2024-04-19T02:31:33.582Z,365.40
2024-04-19T02:34:06.005Z,365.45
2024-04-19T02:36:35.821Z,362.70
2024-04-19T02:39:05.644Z,363.38
2024-04-19T02:41:35.442Z,366.58
2024-04-19T02:44:02.579Z,367.45
2024-04-19T02:46:32.333Z,366.05
2024-04-19T02:49:04.691Z,365.27
2024-04-19T02:51:34.544Z,364.38
2024-04-19T02:54:05.110Z,367.33
2024-04-19T02:56:34.848Z,365.48
2024-04-19T02:59:04.848Z,365.90
2024-04-19T03:01:34.711Z,365.35
2024-04-19T03:04:07.452Z,359.83
2024-04-19T03:06:37.330Z,361.63
2024-04-19T03:09:07.194Z,363.33
2024-04-19T03:11:54.821Z,360.58
2024-04-19T03:14:27.472Z,361.73
2024-04-19T03:16:58.563Z,361.58
2024-04-19T03:19:49.336Z,356.05
2024-04-19T03:22:19.498Z,360.67
2024-04-19T03:24:49.415Z,363.70
2024-04-19T03:27:19.204Z,362.35
2024-04-19T03:29:57.945Z,365.73
2024-04-19T03:32:28.343Z,365.30
2024-04-19T03:35:01.150Z,368.08
2024-04-19T03:37:30.918Z,366.58
2024-04-19T03:40:00.776Z,367.08
2024-04-19T03:42:30.616Z,367.98
2024-04-19T03:45:15.562Z,368.88
2024-04-19T03:47:45.329Z,369.50
2024-04-19T03:50:17.783Z,369.42
2024-04-19T03:52:47.498Z,369.60
2024-04-19T03:55:17.247Z,369.88
2024-04-19T03:57:47.192Z,370.88
2024-04-19T04:00:17.372Z,369.92
2024-04-19T04:02:47.275Z,367.02
2024-04-19T04:05:19.835Z,370.13
2024-04-19T04:07:49.601Z,369.08
2024-04-19T04:10:19.499Z,370.35
2024-04-19T04:12:50.986Z,370.08
2024-04-19T04:15:21.222Z,370.98
2024-04-19T04:17:51.468Z,369.73
2024-04-19T04:20:23.847Z,371.45
2024-04-19T04:22:50.962Z,373.50
2024-04-19T04:25:20.711Z,373.30
2024-04-19T04:27:50.606Z,374.15
2024-04-19T04:30:20.406Z,375.13
2024-04-19T04:32:50.274Z,377.58
2024-04-19T04:35:22.713Z,377.02
2024-04-19T04:37:52.447Z,378.02
2024-04-19T04:40:22.209Z,375.25
2024-04-19T04:42:52.034Z,377.77
2024-04-19T04:45:21.988Z,380.33
2024-04-19T04:47:51.773Z,378.38
2024-04-19T04:50:25.158Z,377.80
2024-04-19T04:52:57.377Z,377.38
2024-04-19T04:55:27.167Z,380.27
2024-04-19T04:57:56.902Z,382.63
2024-04-19T05:00:30.046Z,385.67
2024-04-19T05:03:00.841Z,383.25
2024-04-19T05:05:33.214Z,384.15
2024-04-19T05:08:02.939Z,385.08
2024-04-19T05:10:33.041Z,383.52
2024-04-19T05:13:02.799Z,382.73
2024-04-19T05:15:32.528Z,386.73
2024-04-19T05:18:02.376Z,379.27
2024-04-19T05:20:35.260Z,384.63
2024-04-19T05:23:05.010Z,383.42
2024-04-19T05:25:34.794Z,380.75
2024-04-19T05:28:04.562Z,384.98
2024-04-19T05:30:34.361Z,383.98
2024-04-19T05:33:06.895Z,386.73
2024-04-19T05:35:39.338Z,387.33
2024-04-19T05:38:09.090Z,386.85
2024-04-19T05:40:38.866Z,388.30
2024-04-19T05:43:08.563Z,389.20
2024-04-19T05:45:38.933Z,388.50
2024-04-19T05:48:09.518Z,391.40
2024-04-19T05:50:43.791Z,389.77
2024-04-19T05:53:13.602Z,389.90
2024-04-19T05:55:43.293Z,390.10
2024-04-19T05:58:13.068Z,391.13
2024-04-19T06:00:42.954Z,392.40
2024-04-19T06:03:12.825Z,394.38
2024-04-19T06:05:47.285Z,392.98
2024-04-19T06:08:17.715Z,394.70
2024-04-19T06:10:47.428Z,397.55
2024-04-19T06:13:17.345Z,397.63
2024-04-19T06:15:48.213Z,397.15
2024-04-19T06:18:18.205Z,401.55
2024-04-19T06:20:50.696Z,399.13
2024-04-19T06:23:20.490Z,400.33
2024-04-19T06:25:50.235Z,404.35
2024-04-19T06:28:19.993Z,407.63
2024-04-19T06:30:49.801Z,408.35
2024-04-19T06:33:19.542Z,409.00
2024-04-19T06:35:51.883Z,409.55
2024-04-19T06:38:21.615Z,412.20
2024-04-19T06:40:51.330Z,418.85
2024-04-19T06:43:21.100Z,416.73
2024-04-19T06:45:51.044Z,418.50
2024-04-19T06:48:20.962Z,421.20
2024-04-19T06:50:53.327Z,420.35
2024-04-19T06:53:23.066Z,423.73
2024-04-19T06:55:54.020Z,426.05
2024-04-19T06:58:23.960Z,427.23
2024-04-19T07:01:06.183Z,430.98
2024-04-19T07:03:43.522Z,434.63
2024-04-19T07:06:24.113Z,439.25
2024-04-19T07:09:00.884Z,442.67
2024-04-19T07:11:30.699Z,444.30
2024-04-19T07:14:00.443Z,450.55
2024-04-19T07:16:30.280Z,447.88
2024-04-19T07:19:00.054Z,449.08
2024-04-19T07:21:32.485Z,455.08
2024-04-19T07:24:02.273Z,455.85
2024-04-19T07:26:35.536Z,451.92
2024-04-19T07:29:05.268Z,452.20
2024-04-19T07:31:35.272Z,458.55
2024-04-19T07:34:04.989Z,456.63
2024-04-19T07:36:37.433Z,456.88
2024-04-19T07:39:07.784Z,461.80
2024-04-19T07:41:37.590Z,464.67
2024-04-19T07:44:07.600Z,480.33
2024-04-19T07:46:37.437Z,517.03
2024-04-19T07:49:07.635Z,479.30
2024-04-19T07:51:40.080Z,482.52
2024-04-19T07:54:10.359Z,473.10
2024-04-19T07:56:42.895Z,473.17
2024-04-19T07:59:12.724Z,475.52
2024-04-19T08:01:42.588Z,474.33
2024-04-19T08:04:12.391Z,477.42
2024-04-19T08:06:44.795Z,477.63
2024-04-19T08:09:15.116Z,472.40
2024-04-19T08:11:44.934Z,466.67
2024-04-19T08:14:14.762Z,456.63
2024-04-19T08:16:44.600Z,466.10
2024-04-19T08:19:14.317Z,476.65
2024-04-19T08:21:46.702Z,477.27
2024-04-19T08:24:16.433Z,485.02
2024-04-19T08:26:46.212Z,488.58
2024-04-19T08:29:22.305Z,495.77
2024-04-19T08:31:59.631Z,509.38
2024-04-19T08:34:29.496Z,528.20
2024-04-19T08:37:02.680Z,536.92
2024-04-19T08:39:32.463Z,505.73
2024-04-19T08:42:07.764Z,530.00
2024-04-19T08:44:37.684Z,539.72
2024-04-19T08:47:09.593Z,547.13
2024-04-19T08:49:42.001Z,555.45
2024-04-19T08:52:30.260Z,561.25
2024-04-19T08:55:07.368Z,557.28
2024-04-19T08:57:38.466Z,563.40
2024-04-19T09:00:13.984Z,564.35
2024-04-19T09:02:45.542Z,575.45
2024-04-19T09:05:12.782Z,585.85
2024-04-19T09:07:45.123Z,592.30
2024-04-19T09:10:16.009Z,598.72
2024-04-19T09:12:45.885Z,608.35
2024-04-19T09:15:15.760Z,586.28
2024-04-19T09:17:45.514Z,379.98
2024-04-19T09:20:15.993Z,303.45
2024-04-19T09:22:48.559Z,305.40
2024-04-19T09:25:18.872Z,314.33
2024-04-19T09:27:48.811Z,353.58
2024-04-19T09:30:20.474Z,368.85
2024-04-19T09:32:50.842Z,401.17
2024-04-19T09:35:21.428Z,373.60
2024-04-19T09:37:55.347Z,372.00
2024-04-19T09:40:29.450Z,361.17
2024-04-19T09:43:02.864Z,363.23
2024-04-19T09:45:35.915Z,372.75
2024-04-19T09:48:07.032Z,396.30
2024-04-19T09:50:47.626Z,418.42
2024-04-19T09:53:50.755Z,477.00
2024-04-19T09:56:30.444Z,409.20
2024-04-19T09:59:02.512Z,432.38
2024-04-19T10:01:32.784Z,426.05
2024-04-19T10:04:04.837Z,420.85
2024-04-19T10:06:39.660Z,419.73
2024-04-19T10:09:17.260Z,414.52
2024-04-19T10:11:49.178Z,416.00
2024-04-19T10:14:19.756Z,414.08
2024-04-19T10:16:49.559Z,414.98
2024-04-19T10:19:20.582Z,417.30
2024-04-19T10:21:56.191Z,413.80
2024-04-19T10:24:29.640Z,420.02
2024-04-19T10:27:00.530Z,410.85
2024-04-19T10:29:30.439Z,415.50
2024-04-19T10:32:00.415Z,414.50
2024-04-19T10:34:30.935Z,405.92
2024-04-19T10:37:00.636Z,407.80
2024-04-19T10:39:33.040Z,408.05
2024-04-19T10:42:02.722Z,407.77
2024-04-19T10:44:32.629Z,403.30
2024-04-19T10:47:02.458Z,405.90
2024-04-19T10:49:32.338Z,402.42
2024-04-19T10:52:03.229Z,408.42
2024-04-19T10:54:35.608Z,405.90
2024-04-19T10:57:05.481Z,410.60
2024-04-19T10:59:35.210Z,404.98
2024-04-19T11:02:05.206Z,405.42
2024-04-19T11:04:35.043Z,413.20
2024-04-19T11:07:04.928Z,421.38
2024-04-19T11:09:37.744Z,427.38
2024-04-19T11:12:08.388Z,433.17
2024-04-19T11:14:39.134Z,426.17
2024-04-19T11:17:08.879Z,422.67
2024-04-19T11:19:38.684Z,425.38
2024-04-19T11:22:09.773Z,424.88
2024-04-19T11:24:42.515Z,424.75
2024-04-19T11:27:13.294Z,423.33
2024-04-19T11:29:43.288Z,427.75
2024-04-19T11:32:13.141Z,425.67
2024-04-19T11:34:48.277Z,429.20
2024-04-19T11:37:19.515Z,427.38
2024-04-19T11:39:51.950Z,427.88
2024-04-19T11:42:23.625Z,427.95
2024-04-19T11:44:53.448Z,427.20
2024-04-19T11:47:23.385Z,427.38
2024-04-19T11:49:53.654Z,428.83
2024-04-19T11:52:23.587Z,432.77
2024-04-19T11:54:55.986Z,434.77
2024-04-19T11:57:25.886Z,429.17
2024-04-19T11:59:55.673Z,432.05
2024-04-19T12:02:25.493Z,436.40
2024-04-19T12:04:55.333Z,440.45
2024-04-19T12:07:25.578Z,442.65
2024-04-19T12:09:58.181Z,447.35
2024-04-19T12:15:44.576Z,443.55
2024-04-19T12:17:50.841Z,437.55
2024-04-19T12:20:29.798Z,442.50
2024-04-19T12:23:11.281Z,451.30
2024-04-19T12:25:46.116Z,454.40
2024-04-19T12:28:16.413Z,451.17
2024-04-19T12:30:46.771Z,454.73
2024-04-19T12:33:18.087Z,452.67
2024-04-19T12:35:48.126Z,455.83
2024-04-19T12:38:18.351Z,453.73
2024-04-19T12:40:51.528Z,462.67
2024-04-19T12:43:21.531Z,454.63
2024-04-19T12:45:52.160Z,452.35
2024-04-19T12:48:22.585Z,443.88
2024-04-19T12:50:52.498Z,446.30
2024-04-19T12:53:22.209Z,445.30
2024-04-19T12:55:55.562Z,442.63
2024-04-19T12:58:26.067Z,449.83
2024-04-19T13:00:58.309Z,455.02
2024-04-19T13:03:28.214Z,450.92
2024-04-19T13:05:58.025Z,452.55
2024-04-19T13:08:27.951Z,450.67
2024-04-19T13:11:00.427Z,452.92
2024-04-19T13:13:30.422Z,458.40
2024-04-19T13:16:00.530Z,450.80
2024-04-19T13:18:30.353Z,450.80
2024-04-19T13:21:00.117Z,455.70
2024-04-19T13:23:29.822Z,460.30
2024-04-19T13:26:02.138Z,457.60
2024-04-19T13:28:31.885Z,458.42
2024-04-19T13:31:01.687Z,457.55
2024-04-19T13:33:31.497Z,453.38
2024-04-19T13:36:02.342Z,453.77
2024-04-19T13:38:32.176Z,455.30
2024-04-19T13:41:04.558Z,453.63
2024-04-19T13:43:34.297Z,459.05
2024-04-19T13:46:04.600Z,457.23
2024-04-19T13:48:38.887Z,461.40
2024-04-19T13:51:09.887Z,466.63
2024-04-19T13:53:42.603Z,466.38
2024-04-19T13:56:15.653Z,465.45
2024-04-19T13:58:45.780Z,465.90
2024-04-19T14:01:17.122Z,470.77
2024-04-19T14:03:47.915Z,464.30
2024-04-19T14:06:17.693Z,464.25
2024-04-19T14:08:49.968Z,463.38
2024-04-19T14:11:22.542Z,465.73
2024-04-19T14:13:52.505Z,469.92
2024-04-19T14:16:24.513Z,470.13
2024-04-19T14:18:55.048Z,470.20
2024-04-19T14:21:25.754Z,467.42
2024-04-19T14:23:55.606Z,479.90
2024-04-19T14:26:28.074Z,471.58
2024-04-19T14:28:57.872Z,480.40
2024-04-19T14:31:27.628Z,479.30
2024-04-19T14:33:57.450Z,485.98
2024-04-19T14:36:27.349Z,478.48
2024-04-19T14:38:57.914Z,484.45
2024-04-19T14:41:32.068Z,488.77
2024-04-19T14:44:01.901Z,493.15
2024-04-19T14:46:31.702Z,491.15
2024-04-19T14:49:02.171Z,484.60
2024-04-19T14:51:31.992Z,480.33
2024-04-19T14:54:01.968Z,489.45
2024-04-19T14:56:34.318Z,490.80
2024-04-19T14:59:11.799Z,494.55
2024-04-19T15:01:43.826Z,492.27
2024-04-19T15:04:13.716Z,496.02
2024-04-19T15:06:43.763Z,493.90
2024-04-19T15:09:13.526Z,503.17
2024-04-19T15:11:45.935Z,503.98
2024-04-19T15:14:15.705Z,506.27
2024-04-19T15:16:45.786Z,513.17
2024-04-19T15:19:15.787Z,545.45
2024-04-19T15:21:45.527Z,495.40
2024-04-19T15:24:15.283Z,298.77
2024-04-19T15:26:48.468Z,291.67
2024-04-19T15:29:18.288Z,304.02
2024-04-19T15:31:48.302Z,333.48
2024-04-19T15:34:40.496Z,381.65
2024-04-19T15:37:08.904Z,396.63
2024-04-19T15:39:38.916Z,379.05
2024-04-19T15:42:13.862Z,340.42
2024-04-19T15:44:44.550Z,338.52
2024-04-19T15:47:15.459Z,340.60
2024-04-19T15:52:22.094Z,335.10
2024-04-19T15:54:53.800Z,330.48
2024-04-19T15:57:27.967Z,333.77
2024-04-19T15:59:58.095Z,334.08
2024-04-19T16:02:28.240Z,333.35
2024-04-19T16:04:58.220Z,335.90
2024-04-19T16:07:27.952Z,330.20
2024-04-19T16:09:57.783Z,333.60
2024-04-19T16:12:30.233Z,334.33
2024-04-19T16:15:01.698Z,329.02
2024-04-19T16:17:32.155Z,326.63
2024-04-19T16:20:03.613Z,337.08
2024-04-19T16:22:34.504Z,335.40
2024-04-19T16:25:04.408Z,338.20
2024-04-19T16:27:36.997Z,331.42
2024-04-19T16:30:08.904Z,333.27
2024-04-19T16:32:38.767Z,351.42
2024-04-19T16:35:08.997Z,352.38
2024-04-19T16:37:38.723Z,351.40
2024-04-19T16:40:10.133Z,341.65
2024-04-19T16:42:42.543Z,339.67
2024-04-19T16:45:12.321Z,335.55
2024-04-19T16:47:42.321Z,333.02
2024-04-19T16:50:12.057Z,337.88
2024-04-19T16:52:42.805Z,333.63
2024-04-19T16:55:13.330Z,330.25
2024-04-19T16:57:45.890Z,320.42
2024-04-19T17:00:15.481Z,308.23
2024-04-19T17:02:45.209Z,307.55
2024-04-19T17:05:15.028Z,309.42
2024-04-19T17:07:44.758Z,312.27
2024-04-19T17:10:14.508Z,319.88
2024-04-19T17:12:46.919Z,315.42
2024-04-19T17:15:17.021Z,318.88
2024-04-19T17:17:46.858Z,318.90
2024-04-19T17:20:16.707Z,317.23
2024-04-19T17:22:46.394Z,318.35
2024-04-19T17:25:16.602Z,320.08
2024-04-19T17:27:50.543Z,321.75
2024-04-19T17:30:23.251Z,316.95
2024-04-19T17:32:53.214Z,320.75
2024-04-19T17:35:23.138Z,319.27
2024-04-19T17:37:52.877Z,316.60
2024-04-19T17:40:22.710Z,319.02
2024-04-19T17:42:55.870Z,318.52
2024-04-19T17:45:25.703Z,318.25
2024-04-19T17:47:55.909Z,317.88
2024-04-19T17:50:25.714Z,318.30
2024-04-19T17:52:55.759Z,317.58
2024-04-19T17:55:25.593Z,317.83
2024-04-19T17:57:57.944Z,320.48
2024-04-19T18:00:28.755Z,317.55
2024-04-19T18:02:58.615Z,319.08
2024-04-19T18:05:28.383Z,320.92
2024-04-19T18:07:58.102Z,318.40
2024-04-19T18:10:27.998Z,268.70
2024-04-19T18:13:00.920Z,301.38
2024-04-19T18:18:04.178Z,322.25
2024-04-19T18:23:04.592Z,315.10
2024-04-19T18:25:34.303Z,320.98
2024-04-19T18:28:07.090Z,322.48
2024-04-19T18:35:39.087Z,325.25
2024-04-19T18:38:10.314Z,326.58
2024-04-19T18:40:42.268Z,327.88
2024-04-19T18:48:17.443Z,319.70
2024-04-19T18:53:17.199Z,326.02
2024-04-19T18:58:19.280Z,325.73
2024-04-19T19:03:18.908Z,323.15
2024-04-19T19:05:55.210Z,331.42
2024-04-19T19:08:24.991Z,324.08
2024-04-19T19:10:54.772Z,324.60
2024-04-19T19:13:29.029Z,317.60
2024-04-19T19:15:59.068Z,318.42
2024-04-19T19:18:29.398Z,321.42
2024-04-19T19:20:59.344Z,325.17
2024-04-19T19:23:29.047Z,319.80
2024-04-19T19:26:01.511Z,323.55
2024-04-19T19:33:34.942Z,325.05
2024-04-19T19:36:07.115Z,322.27
2024-04-19T19:38:38.466Z,324.08
2024-04-19T19:41:08.295Z,324.83
2024-04-19T19:43:40.787Z,320.25
2024-04-19T19:46:11.756Z,317.85
2024-04-19T19:48:42.571Z,325.58
2024-04-19T19:53:41.978Z,326.67
2024-04-19T19:56:14.306Z,316.15
2024-04-19T19:58:49.215Z,319.55
2024-04-19T20:01:35.682Z,318.80
2024-04-19T20:04:21.871Z,283.70
2024-04-19T20:06:52.984Z,241.43
2024-04-19T20:09:24.072Z,306.52
2024-04-19T20:11:54.960Z,314.55
2024-04-19T20:14:27.305Z,321.92
2024-04-19T20:16:57.186Z,318.85
2024-04-19T20:19:26.997Z,319.35
2024-04-19T20:21:56.996Z,318.20
2024-04-19T20:24:26.874Z,321.17
2024-04-19T20:26:56.632Z,324.23
2024-04-19T20:29:30.337Z,321.23
2024-04-19T20:34:32.787Z,317.10
2024-04-19T20:37:02.595Z,320.98
2024-04-19T20:39:32.381Z,319.50
2024-04-19T20:42:02.124Z,322.55
2024-04-19T20:44:34.443Z,315.27
2024-04-19T20:47:04.169Z,316.45
2024-04-19T20:49:33.936Z,312.30
2024-04-19T20:54:33.408Z,315.77
2024-04-19T20:57:03.543Z,316.65
2024-04-19T20:59:35.852Z,314.73
2024-04-19T21:02:05.731Z,315.92
2024-04-19T21:04:36.315Z,318.48
2024-04-19T21:07:06.097Z,314.35
2024-04-19T21:09:36.113Z,320.73
2024-04-19T21:12:06.047Z,312.63
2024-04-19T21:14:38.631Z,317.20
2024-04-19T21:17:08.415Z,320.05
2024-04-19T21:19:39.940Z,317.55
2024-04-19T21:22:09.888Z,312.98
2024-04-19T21:24:39.664Z,314.02
2024-04-19T21:27:10.574Z,320.23
2024-04-19T21:32:12.619Z,312.35
2024-04-19T21:34:44.743Z,311.02
2024-04-19T21:37:14.829Z,310.17
2024-04-19T21:39:44.635Z,312.45
2024-04-19T21:42:15.914Z,313.52
2024-04-19T21:44:50.573Z,320.85
2024-04-19T21:47:20.367Z,313.52
2024-04-19T21:49:50.265Z,317.20
2024-04-19T21:52:20.111Z,313.73
2024-04-19T21:54:49.906Z,313.02
2024-04-19T21:57:19.725Z,319.50
2024-04-19T21:59:52.240Z,316.33
2024-04-19T22:02:22.124Z,317.90
2024-04-19T22:12:22.555Z,312.27
2024-04-19T22:14:57.984Z,318.38
2024-04-19T22:17:28.350Z,270.55
2024-04-19T22:19:58.276Z,308.95
2024-04-19T22:22:28.924Z,307.35
2024-04-19T22:24:58.814Z,308.92
2024-04-19T22:27:28.622Z,307.35
2024-04-19T22:32:30.824Z,308.85
2024-04-19T22:35:00.618Z,302.98
2024-04-19T22:37:32.099Z,303.33
2024-04-19T22:40:02.030Z,315.23
2024-04-19T22:42:33.198Z,307.70
2024-04-19T22:45:06.145Z,307.52
2024-04-19T22:47:36.024Z,306.77
2024-04-19T22:50:05.833Z,303.73
2024-04-19T22:52:35.575Z,304.25
2024-04-19T22:55:05.457Z,305.83
2024-04-19T22:57:35.315Z,306.83
2024-04-19T23:00:08.892Z,310.63
2024-04-19T23:02:38.669Z,302.67
2024-04-19T23:05:28.463Z,298.80
2024-04-19T23:07:58.238Z,304.17
2024-04-19T23:10:27.990Z,296.55
2024-04-19T23:12:57.857Z,296.05
2024-04-19T23:15:30.367Z,301.45
2024-04-19T23:18:00.254Z,294.88
2024-04-19T23:20:30.037Z,293.92
2024-04-19T23:23:00.236Z,298.10
2024-04-19T23:25:29.950Z,297.58
2024-04-19T23:27:59.825Z,296.27
2024-04-19T23:30:32.291Z,300.40
2024-04-19T23:33:02.149Z,302.60
2024-04-19T23:35:31.956Z,297.92
2024-04-19T23:38:01.692Z,299.02
2024-04-19T23:40:31.429Z,300.30
2024-04-19T23:43:01.179Z,297.58
2024-04-19T23:45:34.985Z,303.48
2024-04-19T23:48:05.060Z,300.40
2024-04-19T23:50:35.811Z,301.48
2024-04-19T23:53:05.993Z,304.67
2024-04-19T23:55:36.650Z,302.65
2024-04-19T23:58:06.474Z,301.95
